Time;durP1;ratioP1;P1;durP2;ratioP2;P2;SDS_P1;SDS_P2;PMS_P1;PMS_P2;Temp;Humidity;BMP_temperature;BMP_pressure;BME280_temperature;BME280_humidity;BME280_pressure;Samples;Min_cycle;Max_cycle;Signal;HPM_P1;HPM_P2
2022/01/21 20:17:28;;;;;;;24.63;10.67;;;;;;;-1.71;92.08;98865.35;2257744;79;23949;-82
2022/01/21 20:20:29;;;;;;;20.10;9.07;;;;;;;2.46;100.00;98856.77;2208529;80;21008;-81
2022/01/21 20:23:31;;;;;;;23.70;9.57;;;;;;;0.99;71.39;98855.46;2203056;80;20960;-83
2022/01/21 20:26:32;;;;;;;20.03;8.20;;;;;;;-0.15;72.15;98860.63;2203094;80;21064;-83
2022/01/21 20:29:32;;;;;;;20.53;9.20;;;;;;;-0.86;72.49;98859.23;2204816;80;21359;-83
2022/01/21 20:32:37;;;;;;;23.53;9.93;;;;;;;-1.28;73.44;98867.48;2200919;80;21371;-83
2022/01/21 20:35:37;;;;;;;19.53;8.97;;;;;;;-1.54;73.56;98859.95;2204994;80;21495;-83
2022/01/21 20:38:41;;;;;;;28.63;10.83;;;;;;;-1.72;73.84;98863.19;2198275;80;21071;-83
2022/01/21 20:44:45;;;;;;;29.20;10.23;;;;;;;-2.00;74.08;98864.84;2176029;80;21115;-83
2022/01/21 20:47:46;;;;;;;26.30;9.57;;;;;;;-2.18;73.96;98859.48;2209209;80;21004;-83
2022/01/21 20:50:46;;;;;;;19.20;9.03;;;;;;;-2.31;74.29;98873.19;2197589;80;21003;-83
2022/01/21 20:53:49;;;;;;;20.57;7.83;;;;;;;-2.40;74.52;98874.29;2211459;80;20963;-84
2022/01/21 20:56:52;;;;;;;16.93;8.43;;;;;;;-2.44;74.54;98864.66;2196894;80;21366;-82
2022/01/21 20:59:52;;;;;;;17.90;8.23;;;;;;;-2.48;74.60;98871.25;2214593;80;20948;-82
2022/01/21 21:02:52;;;;;;;19.20;8.03;;;;;;;-2.51;74.72;98866.34;2205130;80;20967;-81
2022/01/21 21:05:53;;;;;;;23.57;9.00;;;;;;;-2.49;74.54;98855.82;2190857;80;20954;-81
2022/01/21 21:09:00;;;;;;;24.33;9.80;;;;;;;-2.45;74.78;98855.22;2205985;80;20996;-81
2022/01/21 21:11:57;;;;;;;21.90;8.20;;;;;;;-2.43;74.79;98866.42;2204129;80;21036;-83
2022/01/21 21:15:03;;;;;;;24.70;9.93;;;;;;;-2.44;74.44;98861.71;2207172;80;21486;-83
2022/01/21 21:18:13;;;;;;;21.77;8.33;;;;;;;-2.41;74.42;98855.51;2190636;80;21059;-83
2022/01/21 21:24:32;;;;;;;23.50;9.33;;;;;;;-2.38;74.44;98823.74;2201850;80;21440;-84
2022/01/21 21:27:31;;;;;;;20.90;7.73;;;;;;;-2.37;74.45;98833.58;2204914;80;21032;-83
2022/01/21 22:51:44;;;;;;;14.93;6.23;;;;;;;-2.59;77.98;98839.03;2171843;80;21431;-80
2022/01/21 23:01:10;;;;;;;10.57;4.43;;;;;;;-2.63;77.77;98837.92;2197581;80;21023;-80
2022/01/21 23:04:11;;;;;;;10.07;5.10;;;;;;;-2.65;78.09;98831.83;2184633;80;21439;-80
2022/01/21 23:07:13;;;;;;;14.13;5.60;;;;;;;-2.68;78.42;98839.30;2211144;81;20913;-83
2022/01/21 23:10:13;;;;;;;13.27;5.73;;;;;;;-2.68;78.35;98825.25;2206819;80;21063;-81
2022/01/21 23:13:14;;;;;;;15.17;5.67;;;;;;;-2.68;78.14;98820.14;2211337;80;20980;-81
2022/01/21 23:16:14;;;;;;;15.07;5.00;;;;;;;-2.66;77.91;98812.56;2211427;79;21051;-82
2022/01/21 23:19:15;;;;;;;11.57;4.57;;;;;;;-2.68;77.75;98809.91;2198863;80;20988;-81
2022/01/21 23:22:16;;;;;;;11.53;5.37;;;;;;;-2.70;77.47;98810.22;2202209;80;20991;-81
2022/01/21 23:25:19;;;;;;;11.93;4.10;;;;;;;-2.76;77.41;98823.88;2202915;80;21044;-81
2022/01/21 23:28:20;;;;;;;7.03;3.87;;;;;;;-2.84;77.42;98819.95;2208066;80;21367;-82
2022/01/21 23:31:21;;;;;;;11.23;5.30;;;;;;;-2.88;77.37;98818.00;2206783;80;21084;-83
2022/01/21 23:34:46;;;;;;;12.00;4.90;;;;;;;-2.93;77.43;98812.99;2193840;80;21411;-82
2022/01/21 23:37:34;;;;;;;10.03;5.07;;;;;;;-2.97;77.33;98816.14;2197743;80;21014;-81
2022/01/21 23:40:34;;;;;;;9.80;4.37;;;;;;;-2.99;77.35;98812.60;2206394;80;21063;-82
2022/01/21 23:43:34;;;;;;;12.57;4.67;;;;;;;-3.02;77.33;98814.95;2211295;81;21028;-82
2022/01/21 23:46:36;;;;;;;10.23;4.80;;;;;;;-3.01;77.36;98818.00;2201714;80;21402;-82
2022/01/21 23:49:39;;;;;;;12.87;5.33;;;;;;;-3.02;77.36;98809.85;2210482;80;21399;-81
2022/01/21 23:52:39;;;;;;;10.03;4.67;;;;;;;-3.02;77.46;98806.02;2201081;80;21080;-81
2022/01/21 23:55:40;;;;;;;17.93;8.10;;;;;;;-3.02;77.53;98804.35;2203389;80;20983;-81
2022/01/21 23:58:40;;;;;;;21.63;9.07;;;;;;;-3.01;77.44;98802.69;2210759;80;21000;-81
